Time;durP1;ratioP1;P1;durP2;ratioP2;P2;SDS_P1;SDS_P2;PMS_P1;PMS_P2;Temp;Humidity;BMP_temperature;BMP_pressure;BME280_temperature;BME280_humidity;BME280_pressure;Samples;Min_cycle;Max_cycle;Signal;HPM_P1;HPM_P2
2021/12/30 00:03:54;;;;;;;;;;;18.00;43.80;;;;;;8298097;28;19918;-49
2021/12/30 00:07:55;;;;;;;;;;;18.00;43.80;;;;;;8297787;28;19960;-47
2021/12/30 00:11:55;;;;;;;;;;;18.00;43.80;;;;;;8297771;28;19918;-49
2021/12/30 00:15:56;;;;;;;;;;;18.00;43.80;;;;;;8297936;28;20008;-48
2021/12/30 00:19:56;;;;;;;;;;;18.00;43.80;;;;;;8297458;28;20314;-47
2021/12/30 00:23:57;;;;;;;;;;;18.00;43.70;;;;;;8297727;28;20379;-48
2021/12/30 00:27:57;;;;;;;;;;;17.90;43.80;;;;;;8297717;28;20015;-50
2021/12/30 00:31:58;;;;;;;;;;;18.00;43.90;;;;;;8297040;28;19918;-47
2021/12/30 00:35:58;;;;;;;;;;;18.00;43.80;;;;;;8297362;28;19921;-49
2021/12/30 00:39:59;;;;;;;;;;;18.00;43.80;;;;;;8297548;28;20298;-48
2021/12/30 00:44:00;;;;;;;;;;;18.00;43.70;;;;;;8296980;28;19980;-46
2021/12/30 00:48:01;;;;;;;;;;;18.00;43.80;;;;;;8299442;28;19928;-47
2021/12/30 00:52:02;;;;;;;;;;;18.00;43.90;;;;;;8303936;28;19918;-49
2021/12/30 00:56:03;;;;;;;;;;;18.00;43.80;;;;;;8303138;28;19947;-49
2021/12/30 01:00:05;;;;;;;;;;;18.00;43.70;;;;;;8303705;28;20303;-48
2021/12/30 01:04:06;;;;;;;;;;;18.00;43.80;;;;;;8303413;28;19917;-49
2021/12/30 01:08:07;;;;;;;;;;;18.00;43.80;;;;;;8303038;28;19944;-50
2021/12/30 01:12:07;;;;;;;;;;;18.00;43.80;;;;;;8303223;28;19924;-48
2021/12/30 01:16:16;;;;;;;;;;;18.00;43.90;;;;;;8303035;28;20504;-48
2021/12/30 01:20:18;;;;;;;;;;;18.00;43.80;;;;;;8303120;28;19925;-48
2021/12/30 01:24:19;;;;;;;;;;;18.00;43.90;;;;;;8302850;28;19925;-48
2021/12/30 01:28:19;;;;;;;;;;;18.00;43.80;;;;;;8302485;28;19988;-47
2021/12/30 01:32:20;;;;;;;;;;;18.00;43.90;;;;;;8302838;28;19917;-52
2021/12/30 01:36:21;;;;;;;;;;;18.00;43.90;;;;;;8302486;28;19953;-50
2021/12/30 01:40:22;;;;;;;;;;;18.00;44.00;;;;;;8302185;28;19922;-47
2021/12/30 01:44:22;;;;;;;;;;;18.00;44.00;;;;;;8302451;28;19925;-49
2021/12/30 01:48:23;;;;;;;;;;;18.00;43.90;;;;;;8302530;28;20441;-47
2021/12/30 01:52:23;;;;;;;;;;;18.00;43.90;;;;;;8301539;28;19917;-47
2021/12/30 01:56:24;;;;;;;;;;;18.00;44.00;;;;;;8302244;28;19926;-49
2021/12/30 02:00:25;;;;;;;;;;;18.00;44.00;;;;;;8301593;28;19922;-48
2021/12/30 02:04:26;;;;;;;;;;;18.00;44.00;;;;;;8300382;28;20400;-50
2021/12/30 02:08:26;;;;;;;;;;;18.00;44.00;;;;;;8301509;28;19917;-49
2021/12/30 02:12:30;;;;;;;;;;;18.00;44.10;;;;;;8301374;28;20000;-48
2021/12/30 02:16:30;;;;;;;;;;;18.00;44.00;;;;;;8300641;28;19914;-48
2021/12/30 02:20:46;;;;;;;;;;;18.00;44.00;;;;;;8301305;28;19921;-49
2021/12/30 02:24:47;;;;;;;;;;;18.00;44.00;;;;;;8300970;28;19945;-46
2021/12/30 02:28:47;;;;;;;;;;;18.00;44.10;;;;;;8300592;28;20283;-49
2021/12/30 02:32:48;;;;;;;;;;;17.90;44.00;;;;;;8300699;28;19953;-49
2021/12/30 02:36:48;;;;;;;;;;;18.00;44.10;;;;;;8300652;28;20294;-49
2021/12/30 02:40:51;;;;;;;;;;;18.00;44.10;;;;;;8300196;28;20276;-51
2021/12/30 02:44:52;;;;;;;;;;;18.00;44.10;;;;;;8300478;28;19921;-48
2021/12/30 02:48:54;;;;;;;;;;;18.00;44.10;;;;;;8300421;28;20348;-48
2021/12/30 02:52:54;;;;;;;;;;;18.00;44.10;;;;;;8299911;28;19979;-49
2021/12/30 02:56:55;;;;;;;;;;;18.00;44.10;;;;;;8300296;28;19928;-48
2021/12/30 03:01:05;;;;;;;;;;;17.90;44.20;;;;;;8300059;28;19925;-48
2021/12/30 03:05:06;;;;;;;;;;;18.00;44.20;;;;;;8299214;28;19964;-48
2021/12/30 03:09:07;;;;;;;;;;;18.00;44.20;;;;;;8299441;28;19918;-48
2021/12/30 03:13:08;;;;;;;;;;;18.00;44.20;;;;;;8299091;28;20011;-49
2021/12/30 03:17:11;;;;;;;;;;;18.00;44.20;;;;;;8298858;28;19918;-48
2021/12/30 03:21:12;;;;;;;;;;;18.00;44.20;;;;;;8299682;28;20329;-48
2021/12/30 03:25:14;;;;;;;;;;;18.00;44.20;;;;;;8299310;28;20322;-50
2021/12/30 03:29:14;;;;;;;;;;;18.00;44.20;;;;;;8298609;28;19917;-49
2021/12/30 03:33:15;;;;;;;;;;;18.00;44.20;;;;;;8298993;28;19918;-51
2021/12/30 03:37:15;;;;;;;;;;;18.00;44.10;;;;;;8298741;28;20011;-47
2021/12/30 03:41:17;;;;;;;;;;;18.00;44.10;;;;;;8298321;28;20279;-49
2021/12/30 03:45:18;;;;;;;;;;;18.00;44.10;;;;;;8298752;28;20485;-48
2021/12/30 03:49:18;;;;;;;;;;;18.00;44.00;;;;;;8298263;28;19918;-48
2021/12/30 03:53:19;;;;;;;;;;;18.00;44.10;;;;;;8298450;28;19918;-50
2021/12/30 03:57:19;;;;;;;;;;;18.00;44.00;;;;;;8298281;28;20433;-48
2021/12/30 04:01:21;;;;;;;;;;;18.00;44.10;;;;;;8297899;28;20383;-47
2021/12/30 04:05:22;;;;;;;;;;;18.00;44.60;;;;;;8298383;28;19924;-48
2021/12/30 04:09:22;;;;;;;;;;;18.00;44.00;;;;;;8297952;28;20015;-47
2021/12/30 04:13:23;;;;;;;;;;;18.00;43.90;;;;;;8297584;28;20393;-48
2021/12/30 04:17:23;;;;;;;;;;;18.00;43.90;;;;;;8297856;28;19944;-48
2021/12/30 04:21:24;;;;;;;;;;;18.00;44.10;;;;;;8297855;28;19921;-48
2021/12/30 04:25:25;;;;;;;;;;;18.00;44.20;;;;;;8297465;28;19917;-49
2021/12/30 04:29:25;;;;;;;;;;;18.00;44.40;;;;;;8297890;28;19941;-49
2021/12/30 04:33:26;;;;;;;;;;;18.10;44.40;;;;;;8297568;28;19917;-47
2021/12/30 04:37:26;;;;;;;;;;;18.10;44.60;;;;;;8297089;28;19936;-48
2021/12/30 04:41:27;;;;;;;;;;;18.10;44.70;;;;;;8297543;28;20021;-48
2021/12/30 04:45:29;;;;;;;;;;;18.20;44.80;;;;;;8297529;28;19987;-49
2021/12/30 04:49:29;;;;;;;;;;;18.20;44.70;;;;;;8297067;28;19917;-49
2021/12/30 04:53:30;;;;;;;;;;;18.20;44.70;;;;;;8297197;28;20016;-50
2021/12/30 04:57:30;;;;;;;;;;;18.20;44.80;;;;;;8297106;28;19920;-48
2021/12/30 05:01:31;;;;;;;;;;;18.20;44.70;;;;;;8297245;28;20290;-48
2021/12/30 05:05:31;;;;;;;;;;;18.20;44.80;;;;;;8297258;28;19918;-49
2021/12/30 05:09:32;;;;;;;;;;;18.20;44.80;;;;;;8279471;28;19922;-49
2021/12/30 05:13:32;;;;;;;;;;;18.20;44.80;;;;;;8295862;28;20394;-48
2021/12/30 05:17:35;;;;;;;;;;;18.20;44.80;;;;;;8296752;28;19914;-50
2021/12/30 05:21:35;;;;;;;;;;;18.30;44.90;;;;;;8296868;28;19922;-50
2021/12/30 05:25:36;;;;;;;;;;;18.30;44.90;;;;;;8296248;28;20255;-48
2021/12/30 05:29:36;;;;;;;;;;;18.30;44.90;;;;;;8296893;28;19921;-47
2021/12/30 05:33:37;;;;;;;;;;;18.30;44.80;;;;;;8297545;28;19921;-49
2021/12/30 05:37:38;;;;;;;;;;;18.30;44.90;;;;;;8302048;28;19968;-48
2021/12/30 05:41:39;;;;;;;;;;;18.30;44.80;;;;;;8302915;28;19921;-49
2021/12/30 05:45:39;;;;;;;;;;;18.30;44.80;;;;;;8302487;28;20386;-48
2021/12/30 05:49:40;;;;;;;;;;;18.30;44.80;;;;;;8301720;28;19921;-50
2021/12/30 05:53:40;;;;;;;;;;;18.30;44.80;;;;;;8302041;28;20450;-48
2021/12/30 05:57:43;;;;;;;;;;;18.30;44.80;;;;;;8301439;28;21330;-51
2021/12/30 06:01:43;;;;;;;;;;;18.30;44.80;;;;;;8301512;28;19925;-51
2021/12/30 06:05:43;;;;;;;;;;;18.30;44.80;;;;;;8301732;28;20421;-52
2021/12/30 06:09:44;;;;;;;;;;;18.30;44.70;;;;;;8301582;28;19920;-49
2021/12/30 06:13:45;;;;;;;;;;;18.30;44.70;;;;;;8300906;28;19917;-48
2021/12/30 06:17:45;;;;;;;;;;;18.30;44.80;;;;;;8302059;28;20252;-48
2021/12/30 06:21:46;;;;;;;;;;;18.30;44.70;;;;;;8301288;28;20370;-49
2021/12/30 06:25:46;;;;;;;;;;;18.30;44.80;;;;;;8300615;28;19970;-48
2021/12/30 06:29:46;;;;;;;;;;;18.30;44.70;;;;;;8301120;28;19917;-49
2021/12/30 06:33:47;;;;;;;;;;;18.30;44.60;;;;;;8300745;28;20004;-48
2021/12/30 06:37:47;;;;;;;;;;;18.30;44.60;;;;;;8300495;28;20092;-47
2021/12/30 06:41:48;;;;;;;;;;;18.30;44.60;;;;;;8300719;28;19925;-48
2021/12/30 06:45:48;;;;;;;;;;;18.30;44.60;;;;;;8299593;28;19929;-48
2021/12/30 06:49:49;;;;;;;;;;;18.30;44.60;;;;;;8299749;28;19964;-47
2021/12/30 06:53:51;;;;;;;;;;;18.30;44.60;;;;;;8300299;28;19918;-49
2021/12/30 06:57:52;;;;;;;;;;;18.30;44.60;;;;;;8300639;28;19968;-46
2021/12/30 07:01:52;;;;;;;;;;;18.30;45.00;;;;;;8299209;28;20016;-49
2021/12/30 07:05:54;;;;;;;;;;;18.20;44.60;;;;;;8299699;28;20008;-48
2021/12/30 07:09:54;;;;;;;;;;;18.20;44.40;;;;;;8299764;28;20278;-49
2021/12/30 07:13:55;;;;;;;;;;;18.30;44.50;;;;;;8299068;28;19928;-53
2021/12/30 07:17:55;;;;;;;;;;;18.30;44.40;;;;;;8299771;28;19924;-48
2021/12/30 07:21:56;;;;;;;;;;;18.20;44.50;;;;;;8299257;28;19929;-48
2021/12/30 07:25:56;;;;;;;;;;;18.30;44.40;;;;;;8298749;28;19917;-48
2021/12/30 07:29:58;;;;;;;;;;;18.30;44.50;;;;;;8299420;28;19995;-47
2021/12/30 07:33:59;;;;;;;;;;;18.30;44.50;;;;;;8298943;28;19918;-48
2021/12/30 07:38:00;;;;;;;;;;;18.30;44.50;;;;;;8298856;28;19914;-46
2021/12/30 07:42:00;;;;;;;;;;;18.30;44.50;;;;;;8298659;28;19953;-47
2021/12/30 07:46:01;;;;;;;;;;;18.20;44.40;;;;;;8298621;28;19921;-48
2021/12/30 07:50:02;;;;;;;;;;;18.30;44.40;;;;;;8297803;28;19918;-47
2021/12/30 07:54:03;;;;;;;;;;;18.30;44.50;;;;;;8298343;28;19918;-47
2021/12/30 07:58:03;;;;;;;;;;;18.30;44.60;;;;;;8298351;28;19924;-47
2021/12/30 08:02:04;;;;;;;;;;;18.30;44.50;;;;;;8296856;28;19932;-48
2021/12/30 08:06:04;;;;;;;;;;;18.30;44.50;;;;;;8298377;28;19924;-47
2021/12/30 08:10:10;;;;;;;;;;;18.30;44.50;;;;;;8297999;28;19925;-49
2021/12/30 08:14:11;;;;;;;;;;;18.30;44.50;;;;;;8297507;28;19922;-47
2021/12/30 08:18:11;;;;;;;;;;;18.30;44.50;;;;;;8298273;28;19920;-48
2021/12/30 08:22:12;;;;;;;;;;;18.30;44.40;;;;;;8297721;28;20153;-48
2021/12/30 08:26:12;;;;;;;;;;;18.30;44.40;;;;;;8297134;28;19917;-48
2021/12/30 08:30:14;;;;;;;;;;;18.30;44.40;;;;;;8297725;28;19929;-48
2021/12/30 08:34:15;;;;;;;;;;;18.30;44.40;;;;;;8297600;28;19918;-52
2021/12/30 08:38:17;;;;;;;;;;;18.30;44.40;;;;;;8297326;28;20325;-49
2021/12/30 08:42:22;;;;;;;;;;;18.30;44.40;;;;;;8297238;28;19975;-48
2021/12/30 08:46:22;;;;;;;;;;;18.30;44.40;;;;;;8297086;28;19986;-49
2021/12/30 08:50:23;;;;;;;;;;;18.30;44.40;;;;;;8297539;28;19929;-51
2021/12/30 08:54:23;;;;;;;;;;;18.30;44.40;;;;;;8297538;28;19928;-49
2021/12/30 08:58:23;;;;;;;;;;;18.30;44.40;;;;;;8296947;28;19914;-48
2021/12/30 09:02:24;;;;;;;;;;;18.30;44.40;;;;;;8297101;28;19926;-49
2021/12/30 09:06:24;;;;;;;;;;;18.30;44.50;;;;;;8297193;28;19964;-48
2021/12/30 09:10:25;;;;;;;;;;;18.30;44.40;;;;;;8300218;28;19957;-49
2021/12/30 09:14:25;;;;;;;;;;;18.30;44.40;;;;;;8303190;28;20326;-50
2021/12/30 09:18:26;;;;;;;;;;;18.30;44.40;;;;;;8303606;28;20353;-48
2021/12/30 09:22:26;;;;;;;;;;;18.30;44.30;;;;;;8302535;28;19932;-48
2021/12/30 09:26:27;;;;;;;;;;;18.30;44.30;;;;;;8303036;28;19944;-48
2021/12/30 09:30:27;;;;;;;;;;;18.30;44.50;;;;;;8302661;28;19921;-48
2021/12/30 09:34:28;;;;;;;;;;;18.40;44.40;;;;;;8302637;28;20302;-48
2021/12/30 09:38:28;;;;;;;;;;;18.30;44.40;;;;;;8285358;28;20418;-51
2021/12/30 09:42:29;;;;;;;;;;;18.40;44.30;;;;;;8302403;28;19932;-48
2021/12/30 09:46:29;;;;;;;;;;;18.40;44.40;;;;;;8302154;28;20012;-49
2021/12/30 09:50:39;;;;;;;;;;;18.40;44.40;;;;;;8302196;28;20361;-49
2021/12/30 09:54:39;;;;;;;;;;;18.40;44.40;;;;;;8302510;28;19985;-51
2021/12/30 09:58:40;;;;;;;;;;;18.40;44.50;;;;;;8301862;28;19914;-53
2021/12/30 10:02:41;;;;;;;;;;;18.40;44.40;;;;;;8302200;28;19988;-49
2021/12/30 10:06:43;;;;;;;;;;;18.40;44.50;;;;;;8301838;28;19921;-49
2021/12/30 10:10:45;;;;;;;;;;;18.40;44.40;;;;;;8301016;28;19922;-49
2021/12/30 10:14:52;;;;;;;;;;;18.40;44.50;;;;;;8301406;28;19919;-49
2021/12/30 10:18:54;;;;;;;;;;;18.50;44.50;;;;;;8301519;28;19921;-50
2021/12/30 10:22:56;;;;;;;;;;;18.40;44.40;;;;;;8300770;28;19928;-49
2021/12/30 10:26:57;;;;;;;;;;;18.40;44.40;;;;;;8301065;28;19922;-51
2021/12/30 10:31:18;;;;;;;;;;;18.50;44.90;;;;;;8301043;28;20382;-52
2021/12/30 10:35:18;;;;;;;;;;;18.40;44.40;;;;;;8299667;28;20007;-49
2021/12/30 10:39:27;;;;;;;;;;;18.50;44.50;;;;;;8300837;28;19917;-50
2021/12/30 10:43:45;;;;;;;;;;;18.50;44.50;;;;;;8300222;28;19918;-50
2021/12/30 10:47:53;;;;;;;;;;;18.50;44.40;;;;;;8302307;28;19921;-48
2021/12/30 10:51:55;;;;;;;;;;;18.50;44.40;;;;;;8300747;28;19959;-51
2021/12/30 10:55:55;;;;;;;;;;;18.50;44.40;;;;;;8299980;28;19944;-51
2021/12/30 10:59:56;;;;;;;;;;;18.50;44.40;;;;;;8299883;28;19926;-48
2021/12/30 11:03:58;;;;;;;;;;;18.50;44.40;;;;;;8299593;28;20302;-52
2021/12/30 11:07:58;;;;;;;;;;;18.50;44.50;;;;;;8299417;28;19917;-47
2021/12/30 11:12:00;;;;;;;;;;;18.50;44.40;;;;;;8299954;28;19924;-48
2021/12/30 11:16:01;;;;;;;;;;;18.50;44.50;;;;;;8299378;28;20000;-50
2021/12/30 11:20:06;;;;;;;;;;;18.50;44.40;;;;;;8298856;28;20314;-49
2021/12/30 11:24:07;;;;;;;;;;;18.50;44.50;;;;;;8299857;28;19917;-51
2021/12/30 11:28:08;;;;;;;;;;;18.50;44.50;;;;;;8299284;28;19924;-49
2021/12/30 11:32:09;;;;;;;;;;;18.50;44.50;;;;;;8298354;28;20004;-50
2021/12/30 11:36:09;;;;;;;;;;;18.60;44.50;;;;;;8299152;28;20029;-48
2021/12/30 11:40:11;;;;;;;;;;;18.60;44.60;;;;;;8298776;28;20003;-52
2021/12/30 11:44:50;;;;;;;;;;;18.60;44.60;;;;;;8298399;28;19917;-49
2021/12/30 11:48:54;;;;;;;;;;;18.60;44.50;;;;;;8135604;29;19930;-53
2021/12/30 11:52:58;;;;;;;;;;;18.60;44.60;;;;;;8212852;28;19928;-49
2021/12/30 11:57:17;;;;;;;;;;;18.60;44.50;;;;;;8298710;28;19944;-49
2021/12/30 12:01:19;;;;;;;;;;;18.60;44.50;;;;;;8297760;28;19932;-49
2021/12/30 12:05:40;;;;;;;;;;;18.60;44.60;;;;;;8298479;28;19917;-50
2021/12/30 12:09:40;;;;;;;;;;;18.60;44.60;;;;;;8298549;28;19939;-50
2021/12/30 12:13:42;;;;;;;;;;;18.60;44.60;;;;;;8297527;28;19971;-50
2021/12/30 12:17:43;;;;;;;;;;;18.60;44.60;;;;;;8298049;28;19922;-48
2021/12/30 12:21:45;;;;;;;;;;;18.60;44.60;;;;;;8297634;28;19937;-48
2021/12/30 12:26:03;;;;;;;;;;;18.70;44.60;;;;;;8297234;28;19918;-49
2021/12/30 12:30:05;;;;;;;;;;;18.70;44.60;;;;;;8298095;28;20000;-49
2021/12/30 12:34:05;;;;;;;;;;;18.70;44.60;;;;;;8297457;28;19918;-49
2021/12/30 12:38:07;;;;;;;;;;;18.70;44.60;;;;;;8296945;28;20047;-49
2021/12/30 12:42:08;;;;;;;;;;;18.70;44.60;;;;;;8297508;28;20004;-49
2021/12/30 12:46:08;;;;;;;;;;;18.70;44.60;;;;;;8302878;28;19929;-49
2021/12/30 12:50:09;;;;;;;;;;;18.70;44.60;;;;;;8304173;28;20343;-49
2021/12/30 12:54:09;;;;;;;;;;;18.70;44.60;;;;;;8303656;28;20004;-49
2021/12/30 12:58:10;;;;;;;;;;;18.70;44.50;;;;;;8303843;28;19917;-50
2021/12/30 13:02:11;;;;;;;;;;;18.70;44.60;;;;;;8303068;28;20375;-47
2021/12/30 13:06:13;;;;;;;;;;;18.70;44.60;;;;;;8303753;28;20012;-48
2021/12/30 13:10:19;;;;;;;;;;;18.70;44.60;;;;;;8303735;28;20382;-48
2021/12/30 13:14:19;;;;;;;;;;;18.70;44.60;;;;;;8303013;28;19960;-48
2021/12/30 13:18:20;;;;;;;;;;;18.70;44.60;;;;;;8303395;28;20012;-48
2021/12/30 13:22:23;;;;;;;;;;;18.70;44.70;;;;;;8302572;28;19925;-50
2021/12/30 13:26:25;;;;;;;;;;;18.70;44.70;;;;;;8303164;28;19922;-47
2021/12/30 13:30:27;;;;;;;;;;;18.70;44.50;;;;;;8303187;28;20009;-49
2021/12/30 13:34:28;;;;;;;;;;;18.70;44.60;;;;;;8302232;28;19917;-49
2021/12/30 13:38:28;;;;;;;;;;;18.70;44.60;;;;;;8302586;28;19957;-49
2021/12/30 13:42:30;;;;;;;;;;;18.70;44.60;;;;;;8302387;28;20298;-49
2021/12/30 13:46:30;;;;;;;;;;;18.70;44.60;;;;;;8302039;28;19925;-48
2021/12/30 13:50:31;;;;;;;;;;;18.70;44.60;;;;;;8301196;28;19917;-48
2021/12/30 13:54:32;;;;;;;;;;;18.70;44.60;;;;;;8301050;28;19924;-48
2021/12/30 13:58:42;;;;;;;;;;;18.70;44.60;;;;;;8302021;28;19918;-47
2021/12/30 14:02:43;;;;;;;;;;;18.70;44.60;;;;;;8301693;28;20470;-49
2021/12/30 14:06:44;;;;;;;;;;;18.70;44.50;;;;;;8301688;28;19921;-48
2021/12/30 14:10:45;;;;;;;;;;;18.70;44.60;;;;;;8300642;28;19920;-47
2021/12/30 14:14:46;;;;;;;;;;;18.70;44.60;;;;;;8301304;28;19949;-48
2021/12/30 14:18:50;;;;;;;;;;;18.70;44.60;;;;;;8301474;28;20004;-48
2021/12/30 14:22:50;;;;;;;;;;;18.70;44.60;;;;;;8300733;28;19936;-48
2021/12/30 14:26:55;;;;;;;;;;;18.70;44.60;;;;;;8301086;28;20370;-48
2021/12/30 14:30:56;;;;;;;;;;;18.70;44.60;;;;;;8301212;28;19940;-47
2021/12/30 14:35:04;;;;;;;;;;;18.70;44.60;;;;;;8300512;28;20440;-48
2021/12/30 14:39:21;;;;;;;;;;;18.70;44.60;;;;;;8300678;28;19918;-48
2021/12/30 14:43:21;;;;;;;;;;;18.70;44.50;;;;;;8300201;28;19971;-50
2021/12/30 14:47:25;;;;;;;;;;;18.70;44.70;;;;;;8300612;28;19929;-47
2021/12/30 14:51:30;;;;;;;;;;;18.70;44.60;;;;;;8300030;28;19924;-47
2021/12/30 14:55:35;;;;;;;;;;;18.80;44.70;;;;;;8299813;28;19917;-52
2021/12/30 14:59:36;;;;;;;;;;;18.80;44.80;;;;;;8299999;28;19921;-51
2021/12/30 15:03:36;;;;;;;;;;;18.80;44.70;;;;;;8300063;28;19920;-49
2021/12/30 15:07:38;;;;;;;;;;;18.80;44.70;;;;;;8298458;28;20056;-49
2021/12/30 15:11:38;;;;;;;;;;;18.80;44.80;;;;;;8300212;28;20287;-48
2021/12/30 15:15:39;;;;;;;;;;;18.80;44.60;;;;;;8299892;28;19972;-48
2021/12/30 15:19:40;;;;;;;;;;;18.80;44.70;;;;;;8298998;28;19932;-48
2021/12/30 15:23:40;;;;;;;;;;;18.80;44.70;;;;;;8299438;28;19952;-48
2021/12/30 15:27:41;;;;;;;;;;;18.80;44.70;;;;;;8299319;28;20283;-48
2021/12/30 15:31:42;;;;;;;;;;;18.80;44.60;;;;;;8298634;28;19917;-48
2021/12/30 15:35:42;;;;;;;;;;;18.80;44.80;;;;;;8299368;28;20044;-47
2021/12/30 15:39:44;;;;;;;;;;;18.80;45.30;;;;;;8298842;28;19972;-49
2021/12/30 15:43:46;;;;;;;;;;;18.80;44.80;;;;;;8298328;28;19940;-49
2021/12/30 15:47:47;;;;;;;;;;;18.80;44.90;;;;;;8298307;28;19937;-48
2021/12/30 15:51:48;;;;;;;;;;;18.80;44.90;;;;;;8298358;28;20337;-49
2021/12/30 15:55:49;;;;;;;;;;;18.80;44.80;;;;;;8298095;28;19920;-48
2021/12/30 15:59:49;;;;;;;;;;;18.80;44.80;;;;;;8298165;28;20366;-48
2021/12/30 16:03:50;;;;;;;;;;;18.80;44.80;;;;;;8298138;28;19964;-48
2021/12/30 16:07:50;;;;;;;;;;;18.80;44.80;;;;;;8297754;28;19917;-47
2021/12/30 16:11:50;;;;;;;;;;;18.80;44.90;;;;;;8298030;28;19914;-48
2021/12/30 16:15:51;;;;;;;;;;;18.80;44.90;;;;;;8298349;28;19920;-48
2021/12/30 16:19:52;;;;;;;;;;;18.80;44.90;;;;;;8297102;28;19933;-50
2021/12/30 16:23:52;;;;;;;;;;;18.80;44.90;;;;;;8297953;28;19944;-49
2021/12/30 16:27:52;;;;;;;;;;;18.80;44.90;;;;;;8297898;28;20627;-51
2021/12/30 16:31:53;;;;;;;;;;;18.80;44.80;;;;;;8297376;28;19917;-48
2021/12/30 16:35:54;;;;;;;;;;;18.80;44.80;;;;;;8297836;28;20340;-49
2021/12/30 16:39:54;;;;;;;;;;;18.80;44.80;;;;;;8297455;28;19930;-48
2021/12/30 16:43:56;;;;;;;;;;;18.80;44.70;;;;;;8296975;28;20433;-48
2021/12/30 16:47:56;;;;;;;;;;;18.80;44.70;;;;;;8297858;28;19971;-49
2021/12/30 16:51:57;;;;;;;;;;;18.80;44.70;;;;;;8297563;28;19914;-49
2021/12/30 16:55:57;;;;;;;;;;;18.80;44.70;;;;;;8296740;28;20008;-49
2021/12/30 16:59:58;;;;;;;;;;;18.80;44.70;;;;;;8297254;28;19925;-49
2021/12/30 17:03:58;;;;;;;;;;;18.80;44.70;;;;;;8297248;28;19917;-49
2021/12/30 17:07:59;;;;;;;;;;;18.80;44.70;;;;;;8295992;28;19918;-48
2021/12/30 17:11:59;;;;;;;;;;;18.80;44.60;;;;;;8297226;28;19913;-48
2021/12/30 17:16:02;;;;;;;;;;;18.80;44.70;;;;;;8297034;28;20360;-49
2021/12/30 17:20:04;;;;;;;;;;;18.80;44.60;;;;;;8296366;28;19930;-49
2021/12/30 17:24:04;;;;;;;;;;;18.80;44.70;;;;;;8296839;28;19921;-49
2021/12/30 17:28:12;;;;;;;;;;;18.80;44.70;;;;;;8296942;28;20354;-49
2021/12/30 17:32:14;;;;;;;;;;;18.80;44.60;;;;;;8301545;28;19936;-49
2021/12/30 17:36:14;;;;;;;;;;;18.80;44.70;;;;;;8303096;28;19923;-49
2021/12/30 17:40:15;;;;;;;;;;;18.80;44.60;;;;;;8302604;28;19952;-50
2021/12/30 17:44:16;;;;;;;;;;;18.80;44.70;;;;;;8301805;28;20351;-49
2021/12/30 17:48:17;;;;;;;;;;;18.90;44.60;;;;;;8302350;28;19924;-49
2021/12/30 17:52:17;;;;;;;;;;;18.80;44.60;;;;;;8302216;28;19917;-49
2021/12/30 17:56:18;;;;;;;;;;;18.80;44.60;;;;;;8301916;28;19918;-48
2021/12/30 18:00:20;;;;;;;;;;;18.90;44.60;;;;;;8302038;28;19948;-50
2021/12/30 18:04:21;;;;;;;;;;;18.80;45.10;;;;;;8301511;28;19917;-49
2021/12/30 18:08:23;;;;;;;;;;;18.80;44.80;;;;;;8301875;28;20306;-48
2021/12/30 18:12:24;;;;;;;;;;;18.90;44.70;;;;;;8301910;28;20012;-49
2021/12/30 18:16:24;;;;;;;;;;;18.90;44.80;;;;;;8300941;28;20393;-48
2021/12/30 18:20:25;;;;;;;;;;;18.90;44.60;;;;;;8301568;28;19933;-49
2021/12/30 18:24:25;;;;;;;;;;;18.80;44.60;;;;;;8301245;28;19960;-48
2021/12/30 18:28:26;;;;;;;;;;;18.90;44.80;;;;;;8300648;28;20333;-48
2021/12/30 18:32:27;;;;;;;;;;;18.90;44.60;;;;;;8301229;28;19967;-48
2021/12/30 18:36:27;;;;;;;;;;;18.90;44.70;;;;;;8301121;28;19925;-48
2021/12/30 18:40:30;;;;;;;;;;;18.90;44.70;;;;;;8299989;28;19922;-48
2021/12/30 18:44:33;;;;;;;;;;;18.90;44.70;;;;;;8300503;28;20358;-48
2021/12/30 18:48:33;;;;;;;;;;;18.90;44.70;;;;;;8300695;28;19971;-51
2021/12/30 18:52:34;;;;;;;;;;;18.90;44.70;;;;;;8300082;28;20030;-49
2021/12/30 18:56:36;;;;;;;;;;;18.90;44.70;;;;;;8300385;28;19917;-48
2021/12/30 19:00:39;;;;;;;;;;;18.90;44.70;;;;;;8300118;28;19926;-48
2021/12/30 19:04:41;;;;;;;;;;;18.90;44.70;;;;;;8299494;28;19940;-51
2021/12/30 19:08:42;;;;;;;;;;;18.90;44.60;;;;;;8300061;28;19917;-49
2021/12/30 19:12:47;;;;;;;;;;;18.80;44.70;;;;;;8300171;28;19968;-48
2021/12/30 19:16:47;;;;;;;;;;;18.90;44.70;;;;;;8299193;28;19963;-48
2021/12/30 19:20:48;;;;;;;;;;;18.90;44.70;;;;;;8299434;28;20386;-49
2021/12/30 19:24:49;;;;;;;;;;;18.90;44.70;;;;;;8299221;28;19921;-48
2021/12/30 19:28:50;;;;;;;;;;;18.90;44.60;;;;;;8298653;28;19924;-48
2021/12/30 19:32:50;;;;;;;;;;;18.90;44.60;;;;;;8299596;28;19921;-48
2021/12/30 19:36:51;;;;;;;;;;;18.90;44.70;;;;;;8298993;28;19917;-48
2021/12/30 19:40:51;;;;;;;;;;;18.90;44.80;;;;;;8298370;28;19925;-49
2021/12/30 19:44:52;;;;;;;;;;;18.90;44.70;;;;;;8299078;28;20398;-48
2021/12/30 19:48:52;;;;;;;;;;;18.90;44.70;;;;;;8298645;28;20008;-49
2021/12/30 19:52:53;;;;;;;;;;;18.90;44.70;;;;;;8298088;28;19913;-49
2021/12/30 19:56:53;;;;;;;;;;;18.90;44.70;;;;;;8298420;28;19922;-48
2021/12/30 20:00:54;;;;;;;;;;;18.90;44.70;;;;;;8297667;28;19929;-51
2021/12/30 20:04:55;;;;;;;;;;;18.90;44.80;;;;;;8297806;28;19943;-51
2021/12/30 20:08:55;;;;;;;;;;;18.90;44.80;;;;;;8298409;28;19924;-52
2021/12/30 20:12:56;;;;;;;;;;;18.90;44.70;;;;;;8298612;28;19917;-49
2021/12/30 20:16:57;;;;;;;;;;;18.90;44.70;;;;;;8297485;28;19947;-49
2021/12/30 20:20:57;;;;;;;;;;;18.90;44.70;;;;;;8297982;28;19926;-50
2021/12/30 20:24:57;;;;;;;;;;;18.90;44.80;;;;;;8298054;28;19944;-48
2021/12/30 20:28:58;;;;;;;;;;;18.90;44.80;;;;;;8297154;28;20316;-48
2021/12/30 20:32:59;;;;;;;;;;;18.90;44.80;;;;;;8297953;28;19913;-50
2021/12/30 20:36:59;;;;;;;;;;;18.90;44.70;;;;;;8297688;28;19917;-49
2021/12/30 20:41:00;;;;;;;;;;;18.90;44.80;;;;;;8296924;28;19926;-49
2021/12/30 20:45:02;;;;;;;;;;;18.90;44.70;;;;;;8297574;28;19921;-50
2021/12/30 20:49:03;;;;;;;;;;;18.90;44.80;;;;;;8297432;28;19928;-48
2021/12/30 20:53:04;;;;;;;;;;;18.90;44.80;;;;;;8297045;28;19914;-48
2021/12/30 20:57:05;;;;;;;;;;;18.90;44.70;;;;;;8297094;28;20264;-48
2021/12/30 21:01:06;;;;;;;;;;;18.90;44.80;;;;;;8297045;28;19925;-48
2021/12/30 21:05:07;;;;;;;;;;;18.90;44.70;;;;;;8298328;28;20352;-50
2021/12/30 21:09:08;;;;;;;;;;;18.90;44.80;;;;;;8303502;28;20016;-48
2021/12/30 21:13:09;;;;;;;;;;;18.90;44.70;;;;;;8303979;28;19921;-48
2021/12/30 21:17:09;;;;;;;;;;;18.90;44.60;;;;;;8302944;28;19918;-47
2021/12/30 21:21:10;;;;;;;;;;;18.90;44.60;;;;;;8303204;28;19925;-48
2021/12/30 21:25:11;;;;;;;;;;;18.90;44.60;;;;;;8303112;28;19917;-49
2021/12/30 21:29:12;;;;;;;;;;;18.90;44.50;;;;;;8302519;28;19943;-48
2021/12/30 21:33:13;;;;;;;;;;;18.90;44.60;;;;;;8303154;28;19960;-48
2021/12/30 21:37:13;;;;;;;;;;;18.90;44.50;;;;;;8302661;28;20462;-48
2021/12/30 21:41:15;;;;;;;;;;;18.90;44.50;;;;;;8302105;28;19934;-49
2021/12/30 21:45:15;;;;;;;;;;;18.90;44.40;;;;;;8302710;28;19929;-49
2021/12/30 21:49:16;;;;;;;;;;;18.90;44.40;;;;;;8302378;28;20290;-50
2021/12/30 21:53:17;;;;;;;;;;;18.90;44.40;;;;;;8302157;28;19920;-49
2021/12/30 21:57:17;;;;;;;;;;;18.90;44.30;;;;;;8302368;28;19929;-48
2021/12/30 22:01:18;;;;;;;;;;;18.90;44.30;;;;;;8301482;28;20291;-50
2021/12/30 22:05:20;;;;;;;;;;;18.90;44.30;;;;;;8301922;28;19968;-49
2021/12/30 22:09:24;;;;;;;;;;;18.90;44.30;;;;;;8301895;28;19921;-49
2021/12/30 22:13:25;;;;;;;;;;;18.90;44.30;;;;;;8301573;28;19918;-51
2021/12/30 22:17:26;;;;;;;;;;;18.90;44.30;;;;;;8301575;28;20418;-51
2021/12/30 22:21:27;;;;;;;;;;;18.90;44.30;;;;;;8301540;28;19926;-50
2021/12/30 22:25:28;;;;;;;;;;;18.90;44.30;;;;;;8300797;28;19917;-52
2021/12/30 22:29:28;;;;;;;;;;;18.90;44.40;;;;;;8301127;28;20329;-51
2021/12/30 22:33:29;;;;;;;;;;;18.90;44.30;;;;;;8301260;28;19913;-50
2021/12/30 22:37:29;;;;;;;;;;;18.90;44.30;;;;;;8300474;28;19917;-52
2021/12/30 22:41:30;;;;;;;;;;;18.90;44.40;;;;;;8300601;28;19926;-52
2021/12/30 22:45:31;;;;;;;;;;;18.90;44.30;;;;;;8300862;28;19921;-52
2021/12/30 22:49:31;;;;;;;;;;;18.90;44.30;;;;;;8300072;28;19913;-52
2021/12/30 22:53:32;;;;;;;;;;;18.90;44.30;;;;;;8300697;28;19914;-52
2021/12/30 22:57:33;;;;;;;;;;;18.90;44.30;;;;;;8300443;28;20016;-49
2021/12/30 23:01:33;;;;;;;;;;;18.90;44.40;;;;;;8298921;28;19952;-52
2021/12/30 23:05:34;;;;;;;;;;;18.90;44.40;;;;;;8299378;28;19925;-53
2021/12/30 23:09:34;;;;;;;;;;;18.90;44.30;;;;;;8299990;28;19918;-51
2021/12/30 23:13:35;;;;;;;;;;;18.80;44.30;;;;;;8299743;28;19920;-52
2021/12/30 23:17:35;;;;;;;;;;;18.80;44.40;;;;;;8299622;28;19918;-51
2021/12/30 23:21:37;;;;;;;;;;;18.90;44.40;;;;;;8299398;28;19925;-49
2021/12/30 23:25:38;;;;;;;;;;;18.80;44.40;;;;;;8298942;28;19918;-48